Time;durP1;ratioP1;P1;durP2;ratioP2;P2;SDS_P1;SDS_P2;PMS_P1;PMS_P2;Temp;Humidity;BMP_temperature;BMP_pressure;BME280_temperature;BME280_humidity;BME280_pressure;Samples;Min_cycle;Max_cycle;Signal;HPM_P1;HPM_P2
2022/07/04 00:02:05;;;;;;;;;;;25.80;59.80;;;;;;5043773;28;86206;-43
2022/07/04 00:04:30;;;;;;;;;;;25.70;59.70;;;;;;5044168;28;87964;-43
2022/07/04 00:06:56;;;;;;;;;;;25.70;59.80;;;;;;5043459;28;87162;-42
2022/07/04 00:09:21;;;;;;;;;;;25.70;59.80;;;;;;5042407;28;87990;-43
2022/07/04 00:11:47;;;;;;;;;;;25.70;59.90;;;;;;5042840;28;88153;-44
2022/07/04 00:14:12;;;;;;;;;;;25.60;59.70;;;;;;5043175;28;86994;-45
2022/07/04 00:16:38;;;;;;;;;;;25.70;59.80;;;;;;5043279;28;87578;-44
2022/07/04 00:19:03;;;;;;;;;;;25.60;59.80;;;;;;5042617;28;88373;-43
2022/07/04 00:21:29;;;;;;;;;;;25.60;59.90;;;;;;5043163;28;87167;-43
2022/07/04 00:23:54;;;;;;;;;;;25.60;59.80;;;;;;5042885;28;87385;-43
2022/07/04 00:26:20;;;;;;;;;;;25.60;59.80;;;;;;5045782;28;88697;-43
2022/07/04 00:28:45;;;;;;;;;;;25.60;59.80;;;;;;5043031;28;87017;-43
2022/07/04 00:31:11;;;;;;;;;;;25.60;59.80;;;;;;5042271;28;88687;-43
2022/07/04 00:33:36;;;;;;;;;;;25.50;59.80;;;;;;5042197;28;88238;-45
2022/07/04 00:36:02;;;;;;;;;;;25.50;60.30;;;;;;5042857;27;88397;-44
2022/07/04 00:38:28;;;;;;;;;;;25.50;59.80;;;;;;5042605;28;87923;-43
2022/07/04 00:40:53;;;;;;;;;;;25.50;59.80;;;;;;5042784;28;87124;-44
2022/07/04 00:43:26;;;;;;;;;;;25.50;59.80;;;;;;5042707;27;87483;-44
2022/07/04 00:45:51;;;;;;;;;;;25.50;59.80;;;;;;5041531;28;89364;-43
2022/07/04 00:48:18;;;;;;;;;;;25.50;59.90;;;;;;5045313;28;87129;-43
2022/07/04 00:50:44;;;;;;;;;;;25.40;59.80;;;;;;5042575;28;88632;-45
2022/07/04 00:53:10;;;;;;;;;;;25.40;59.90;;;;;;5042643;28;86946;-46
2022/07/04 00:55:36;;;;;;;;;;;25.40;59.80;;;;;;5042077;27;89031;-43
2022/07/04 00:58:01;;;;;;;;;;;25.40;59.80;;;;;;5041565;28;89140;-44
2022/07/04 01:00:27;;;;;;;;;;;25.30;59.80;;;;;;5042276;28;87124;-44
2022/07/04 01:02:52;;;;;;;;;;;25.30;59.80;;;;;;5042540;28;87533;-44
2022/07/04 01:05:19;;;;;;;;;;;25.30;59.80;;;;;;5041996;28;88110;-43
2022/07/04 01:07:44;;;;;;;;;;;25.30;59.80;;;;;;5042575;28;86873;-43
2022/07/04 01:10:10;;;;;;;;;;;25.30;60.30;;;;;;5045110;27;87359;-43
2022/07/04 01:12:36;;;;;;;;;;;25.30;59.80;;;;;;5042252;28;87085;-43
2022/07/04 01:15:02;;;;;;;;;;;25.30;59.90;;;;;;5042399;27;88970;-43
2022/07/04 01:17:27;;;;;;;;;;;25.30;60.00;;;;;;5041610;28;89217;-43
2022/07/04 01:19:53;;;;;;;;;;;25.20;59.80;;;;;;5041906;28;87060;-44
2022/07/04 01:22:19;;;;;;;;;;;25.20;59.80;;;;;;5041445;27;88964;-44
2022/07/04 01:24:45;;;;;;;;;;;25.20;59.80;;;;;;5041707;28;89285;-43
2022/07/04 01:27:10;;;;;;;;;;;25.20;59.80;;;;;;5042208;28;87040;-43
2022/07/04 01:29:36;;;;;;;;;;;25.20;59.90;;;;;;5044758;27;87408;-43
2022/07/04 01:32:08;;;;;;;;;;;25.20;59.80;;;;;;5041904;28;87130;-43
2022/07/04 01:34:34;;;;;;;;;;;25.10;59.80;;;;;;5042039;27;87569;-44
2022/07/04 01:37:00;;;;;;;;;;;25.20;59.90;;;;;;5041714;28;87459;-43
2022/07/04 01:39:28;;;;;;;;;;;25.10;60.00;;;;;;5042524;28;86367;-43
2022/07/04 01:41:54;;;;;;;;;;;25.10;59.90;;;;;;5041799;27;86963;-43
2022/07/04 01:44:20;;;;;;;;;;;25.10;59.90;;;;;;5041047;28;88117;-43
2022/07/04 01:46:45;;;;;;;;;;;25.00;59.80;;;;;;5041583;27;87937;-43
2022/07/04 01:49:11;;;;;;;;;;;25.00;59.80;;;;;;5045451;27;88603;-43
2022/07/04 01:51:43;;;;;;;;;;;25.00;59.80;;;;;;5047704;28;89328;-43
2022/07/04 01:54:08;;;;;;;;;;;25.00;59.80;;;;;;5045186;27;87204;-43
2022/07/04 01:56:34;;;;;;;;;;;25.00;59.90;;;;;;5044972;28;87830;-43
2022/07/04 01:59:01;;;;;;;;;;;25.00;59.90;;;;;;5044687;28;87011;-41
2022/07/04 02:01:30;;;;;;;;;;;24.90;59.90;;;;;;5044980;27;88898;-43
2022/07/04 02:03:56;;;;;;;;;;;24.90;60.00;;;;;;5045156;28;87245;-43
2022/07/04 02:06:21;;;;;;;;;;;24.90;59.90;;;;;;5045039;28;87041;-43
2022/07/04 02:13:00;;;;;;;;;;;24.80;59.90;;;;;;5043812;28;88200;-43
2022/07/04 02:14:16;;;;;;;;;;;24.80;60.00;;;;;;5047796;28;87362;-42
2022/07/04 02:16:42;;;;;;;;;;;24.80;60.00;;;;;;5044565;28;87039;-43
2022/07/04 02:19:07;;;;;;;;;;;24.80;60.00;;;;;;5044589;28;87175;-43
2022/07/04 02:21:33;;;;;;;;;;;24.80;60.00;;;;;;5044739;28;87902;-43
2022/07/04 02:23:58;;;;;;;;;;;24.80;60.00;;;;;;5044227;28;88029;-42
2022/07/04 02:26:24;;;;;;;;;;;24.80;60.00;;;;;;5044777;28;87178;-43
2022/07/04 02:28:50;;;;;;;;;;;24.70;60.50;;;;;;5045318;28;87539;-43
2022/07/04 02:31:16;;;;;;;;;;;24.70;60.00;;;;;;5044472;28;88021;-43
2022/07/04 02:33:41;;;;;;;;;;;24.70;60.00;;;;;;5044919;28;88313;-44
2022/07/04 02:36:07;;;;;;;;;;;24.70;60.00;;;;;;5046555;28;87945;-43
2022/07/04 02:38:32;;;;;;;;;;;24.70;60.00;;;;;;5044598;28;87114;-43
2022/07/04 02:40:58;;;;;;;;;;;24.70;60.00;;;;;;5044320;28;87430;-43
2022/07/04 02:43:23;;;;;;;;;;;24.60;59.90;;;;;;5043762;28;89742;-43
2022/07/04 02:45:49;;;;;;;;;;;24.60;59.90;;;;;;5043912;28;87212;-43
2022/07/04 02:48:14;;;;;;;;;;;24.60;59.90;;;;;;5044535;28;87089;-43
2022/07/04 02:50:40;;;;;;;;;;;24.60;59.90;;;;;;5044030;28;88129;-43
2022/07/04 02:53:06;;;;;;;;;;;24.60;60.00;;;;;;5044869;28;86387;-43
2022/07/04 02:55:31;;;;;;;;;;;24.60;60.00;;;;;;5044320;27;87119;-43
2022/07/04 02:57:57;;;;;;;;;;;24.50;60.00;;;;;;5046738;27;88070;-43
2022/07/04 03:00:22;;;;;;;;;;;24.50;60.00;;;;;;5042648;28;87916;-45
2022/07/04 03:02:47;;;;;;;;;;;24.60;60.00;;;;;;5043910;28;87187;-43
2022/07/04 03:05:13;;;;;;;;;;;24.50;60.00;;;;;;5044094;28;87119;-45
2022/07/04 03:07:38;;;;;;;;;;;24.50;60.00;;;;;;5044359;28;87590;-43
2022/07/04 03:10:04;;;;;;;;;;;24.50;60.10;;;;;;5043552;28;88139;-43
2022/07/04 03:12:30;;;;;;;;;;;24.50;60.00;;;;;;5043766;28;87207;-43
2022/07/04 03:14:55;;;;;;;;;;;24.50;60.00;;;;;;5043907;28;87596;-44
2022/07/04 03:17:21;;;;;;;;;;;24.50;60.00;;;;;;5043820;28;88993;-43
2022/07/04 03:19:46;;;;;;;;;;;24.40;60.00;;;;;;5046428;28;87173;-43
2022/07/04 03:22:12;;;;;;;;;;;24.40;60.00;;;;;;5043471;28;88149;-43
2022/07/04 03:24:37;;;;;;;;;;;24.40;60.00;;;;;;5043109;28;88082;-43
2022/07/04 03:27:03;;;;;;;;;;;24.40;60.00;;;;;;5043831;28;87636;-43
2022/07/04 03:29:28;;;;;;;;;;;24.30;60.00;;;;;;5043514;28;87082;-43
2022/07/04 03:31:54;;;;;;;;;;;24.40;60.00;;;;;;5043859;28;87108;-44
2022/07/04 03:34:19;;;;;;;;;;;24.30;60.00;;;;;;5043590;28;87648;-43
2022/07/04 03:36:45;;;;;;;;;;;24.30;60.00;;;;;;5043211;28;88029;-44
2022/07/04 03:39:10;;;;;;;;;;;24.30;60.10;;;;;;5046446;28;87288;-43
2022/07/04 03:41:36;;;;;;;;;;;24.30;60.10;;;;;;5043717;28;87364;-43
2022/07/04 03:44:02;;;;;;;;;;;24.30;60.10;;;;;;5043373;28;87127;-43
2022/07/04 03:46:27;;;;;;;;;;;24.20;60.10;;;;;;5043186;27;87361;-44
2022/07/04 03:48:54;;;;;;;;;;;24.30;60.10;;;;;;5040942;28;92184;-43
2022/07/04 03:51:20;;;;;;;;;;;24.20;60.10;;;;;;5043217;28;87196;-45
2022/07/04 03:53:45;;;;;;;;;;;24.20;60.10;;;;;;5043130;27;87932;-43
2022/07/04 03:56:11;;;;;;;;;;;24.20;60.10;;;;;;5042554;28;89356;-43
2022/07/04 03:58:36;;;;;;;;;;;24.20;60.10;;;;;;5043481;28;87080;-43
2022/07/04 04:01:02;;;;;;;;;;;24.20;60.10;;;;;;5045937;27;87359;-43
2022/07/04 04:06:12;;;;;;;;;;;24.20;60.10;;;;;;5043798;28;86578;-42
2022/07/04 04:08:37;;;;;;;;;;;24.10;60.10;;;;;;5042433;28;89420;-42
2022/07/04 04:11:03;;;;;;;;;;;24.10;60.00;;;;;;5042701;27;87137;-43
2022/07/04 04:13:29;;;;;;;;;;;24.10;60.10;;;;;;5042491;28;87985;-43
2022/07/04 04:15:54;;;;;;;;;;;24.10;60.10;;;;;;5042865;28;88023;-43
2022/07/04 04:18:20;;;;;;;;;;;24.10;60.20;;;;;;5043010;28;87174;-43
2022/07/04 04:20:45;;;;;;;;;;;24.00;60.10;;;;;;5042849;28;87304;-43
2022/07/04 04:23:11;;;;;;;;;;;24.10;60.20;;;;;;5045468;28;88433;-42
2022/07/04 04:25:36;;;;;;;;;;;24.10;60.20;;;;;;5042875;28;87563;-43
2022/07/04 04:28:02;;;;;;;;;;;24.10;60.20;;;;;;5042773;28;88062;-43
2022/07/04 04:30:27;;;;;;;;;;;24.00;60.20;;;;;;5043401;28;86408;-43
2022/07/04 04:32:53;;;;;;;;;;;24.00;60.10;;;;;;5042893;27;86778;-43
2022/07/04 04:35:19;;;;;;;;;;;24.00;60.20;;;;;;5042303;28;88267;-43
2022/07/04 04:37:44;;;;;;;;;;;24.00;60.30;;;;;;5042085;28;87974;-43
2022/07/04 04:40:10;;;;;;;;;;;24.00;60.30;;;;;;5042757;27;88016;-43
2022/07/04 04:42:37;;;;;;;;;;;24.00;60.20;;;;;;5042465;28;88378;-43
2022/07/04 04:45:03;;;;;;;;;;;24.00;60.20;;;;;;5044551;28;87201;-43
2022/07/04 04:47:29;;;;;;;;;;;24.00;60.20;;;;;;5042241;28;89503;-43
2022/07/04 04:49:54;;;;;;;;;;;24.00;60.30;;;;;;5042597;28;87101;-43
2022/07/04 04:52:20;;;;;;;;;;;24.00;60.30;;;;;;5042586;28;87447;-46
2022/07/04 04:54:45;;;;;;;;;;;23.90;60.30;;;;;;5042582;28;87163;-49
2022/07/04 04:57:11;;;;;;;;;;;23.90;60.30;;;;;;5042787;28;87161;-43
2022/07/04 04:59:37;;;;;;;;;;;23.90;60.30;;;;;;5042554;28;87429;-43
2022/07/04 05:02:03;;;;;;;;;;;23.90;60.30;;;;;;5041351;28;89084;-43
2022/07/04 05:04:28;;;;;;;;;;;23.90;60.30;;;;;;5042487;28;87078;-43
2022/07/04 05:06:54;;;;;;;;;;;23.90;60.20;;;;;;5044904;28;88959;-41
2022/07/04 05:09:20;;;;;;;;;;;23.90;60.30;;;;;;5041986;28;87160;-43
2022/07/04 05:11:46;;;;;;;;;;;23.90;60.30;;;;;;5042598;28;87294;-43
2022/07/04 05:14:12;;;;;;;;;;;23.90;60.20;;;;;;5041713;28;89583;-44
2022/07/04 05:16:37;;;;;;;;;;;23.90;60.30;;;;;;5042419;28;87085;-43
2022/07/04 05:19:03;;;;;;;;;;;23.90;60.30;;;;;;5042685;27;87463;-45
2022/07/04 05:21:28;;;;;;;;;;;24.00;60.30;;;;;;5041691;27;88013;-43
2022/07/04 05:23:54;;;;;;;;;;;24.00;60.40;;;;;;5045214;28;87105;-44
2022/07/04 05:26:20;;;;;;;;;;;23.90;60.40;;;;;;5045095;28;87970;-43
2022/07/04 05:28:45;;;;;;;;;;;23.90;60.40;;;;;;5046609;28;91147;-43
2022/07/04 05:31:11;;;;;;;;;;;23.90;60.50;;;;;;5045827;28;87436;-43
2022/07/04 05:33:36;;;;;;;;;;;23.90;60.60;;;;;;5045244;28;88009;-43
2022/07/04 05:36:02;;;;;;;;;;;23.90;60.70;;;;;;5045651;28;87114;-43
2022/07/04 05:38:27;;;;;;;;;;;23.90;60.80;;;;;;5045483;27;86908;-43
2022/07/04 05:40:53;;;;;;;;;;;23.90;60.80;;;;;;5045170;28;88106;-43
2022/07/04 05:43:21;;;;;;;;;;;23.90;60.70;;;;;;5046420;28;87087;-43
2022/07/04 05:45:48;;;;;;;;;;;23.90;60.70;;;;;;5045089;28;87099;-44
2022/07/04 05:48:13;;;;;;;;;;;23.90;60.80;;;;;;5047576;28;89781;-43
2022/07/04 05:50:39;;;;;;;;;;;23.90;60.80;;;;;;5044871;27;88081;-42
2022/07/04 05:53:04;;;;;;;;;;;23.90;60.90;;;;;;5044751;28;88296;-43
2022/07/04 05:55:30;;;;;;;;;;;23.90;60.90;;;;;;5044804;28;87311;-43
2022/07/04 05:57:55;;;;;;;;;;;23.90;60.80;;;;;;5045507;28;87650;-42
2022/07/04 06:00:21;;;;;;;;;;;23.90;60.80;;;;;;5044935;28;88164;-43
2022/07/04 06:02:47;;;;;;;;;;;23.90;60.80;;;;;;5044858;28;87102;-45
2022/07/04 06:05:12;;;;;;;;;;;23.90;60.90;;;;;;5045015;27;87253;-43
2022/07/04 06:07:38;;;;;;;;;;;23.90;60.90;;;;;;5045316;28;86935;-42
2022/07/04 06:10:05;;;;;;;;;;;23.90;61.10;;;;;;5047737;28;87549;-43
2022/07/04 06:12:30;;;;;;;;;;;23.90;61.10;;;;;;5044332;28;89759;-42
2022/07/04 06:14:56;;;;;;;;;;;23.90;61.10;;;;;;5044255;28;88045;-43
2022/07/04 06:17:21;;;;;;;;;;;23.90;61.10;;;;;;5044939;27;88276;-42
2022/07/04 06:19:47;;;;;;;;;;;23.90;61.00;;;;;;5044212;28;88110;-42
2022/07/04 06:22:12;;;;;;;;;;;24.00;60.90;;;;;;5044922;28;87417;-42
2022/07/04 06:24:38;;;;;;;;;;;24.00;60.90;;;;;;5044322;27;88873;-43
2022/07/04 06:27:03;;;;;;;;;;;24.00;60.90;;;;;;5044512;28;87823;-43
2022/07/04 06:29:29;;;;;;;;;;;23.90;61.00;;;;;;5044659;28;87160;-42
2022/07/04 06:31:55;;;;;;;;;;;24.00;61.00;;;;;;5047655;27;87403;-42
2022/07/04 06:37:04;;;;;;;;;;;24.00;61.00;;;;;;5044513;28;86981;-42
2022/07/04 06:39:30;;;;;;;;;;;24.00;61.20;;;;;;5043770;28;88147;-42
2022/07/04 06:41:55;;;;;;;;;;;24.00;61.10;;;;;;5044392;28;87128;-43
2022/07/04 06:44:21;;;;;;;;;;;24.00;61.10;;;;;;5044423;28;87413;-43
2022/07/04 06:46:46;;;;;;;;;;;24.00;61.10;;;;;;5043861;28;88562;-43
2022/07/04 06:49:12;;;;;;;;;;;24.00;61.10;;;;;;5044516;28;87138;-43
2022/07/04 06:51:37;;;;;;;;;;;24.00;61.20;;;;;;5044372;28;86869;-43
2022/07/04 06:54:03;;;;;;;;;;;24.00;61.10;;;;;;5046586;28;89368;-42
2022/07/04 06:56:28;;;;;;;;;;;24.00;61.20;;;;;;5044904;28;87453;-42
2022/07/04 06:58:54;;;;;;;;;;;24.00;61.20;;;;;;5043848;28;88050;-42
2022/07/04 07:01:19;;;;;;;;;;;24.00;61.20;;;;;;5044137;28;87034;-42
2022/07/04 07:03:45;;;;;;;;;;;24.00;61.30;;;;;;5043694;28;87866;-42
2022/07/04 07:06:10;;;;;;;;;;;24.00;61.30;;;;;;5043826;28;88050;-43
2022/07/04 07:08:36;;;;;;;;;;;24.00;61.30;;;;;;5044046;28;87241;-44
2022/07/04 07:11:12;;;;;;;;;;;24.00;61.40;;;;;;5044008;28;87428;-45
2022/07/04 07:13:45;;;;;;;;;;;24.00;61.40;;;;;;5043596;28;89342;-43
2022/07/04 07:16:10;;;;;;;;;;;24.00;61.40;;;;;;5046885;28;86906;-43
2022/07/04 07:18:36;;;;;;;;;;;24.00;61.40;;;;;;5043624;28;87981;-43
2022/07/04 07:21:02;;;;;;;;;;;24.00;61.50;;;;;;5044008;28;86527;-43
2022/07/04 07:23:27;;;;;;;;;;;24.00;61.50;;;;;;5043895;28;86987;-41
2022/07/04 07:25:53;;;;;;;;;;;24.00;61.50;;;;;;5043436;28;88075;-43
2022/07/04 07:28:18;;;;;;;;;;;24.00;61.40;;;;;;5043040;28;88054;-43
2022/07/04 07:30:44;;;;;;;;;;;24.00;61.50;;;;;;5043769;27;87845;-45
2022/07/04 07:33:10;;;;;;;;;;;24.00;61.40;;;;;;5043291;28;89581;-42
2022/07/04 07:35:35;;;;;;;;;;;24.00;61.50;;;;;;5043374;28;87097;-43
2022/07/04 07:38:01;;;;;;;;;;;24.00;61.50;;;;;;5046106;27;87825;-43
2022/07/04 07:40:26;;;;;;;;;;;24.00;61.50;;;;;;5043228;28;87154;-43
2022/07/04 07:42:54;;;;;;;;;;;24.00;61.40;;;;;;5043513;28;87354;-42
2022/07/04 07:45:20;;;;;;;;;;;24.00;61.50;;;;;;5042150;28;89264;-43
2022/07/04 07:47:45;;;;;;;;;;;24.00;61.60;;;;;;5043539;28;86876;-42
2022/07/04 07:50:11;;;;;;;;;;;24.00;61.50;;;;;;5043369;28;87663;-43
2022/07/04 07:52:37;;;;;;;;;;;24.00;61.50;;;;;;5042473;28;89105;-43
2022/07/04 07:55:02;;;;;;;;;;;24.00;61.40;;;;;;5043077;28;87092;-43
2022/07/04 07:57:28;;;;;;;;;;;24.00;61.50;;;;;;5045581;28;88913;-43
2022/07/04 07:59:54;;;;;;;;;;;24.00;61.50;;;;;;5043292;28;87080;-42
2022/07/04 08:02:19;;;;;;;;;;;24.10;61.40;;;;;;5043062;28;88708;-42
2022/07/04 08:04:45;;;;;;;;;;;24.00;61.50;;;;;;5042709;28;88150;-42
2022/07/04 08:07:14;;;;;;;;;;;24.10;61.40;;;;;;5043448;28;87214;-41
2022/07/04 08:09:39;;;;;;;;;;;24.10;61.60;;;;;;5043698;27;87228;-43
2022/07/04 08:12:06;;;;;;;;;;;24.10;61.50;;;;;;5042593;28;89673;-42
2022/07/04 08:14:31;;;;;;;;;;;24.10;61.50;;;;;;5042676;28;87141;-43
2022/07/04 08:16:58;;;;;;;;;;;24.10;61.50;;;;;;5042570;28;88080;-43
2022/07/04 08:19:24;;;;;;;;;;;24.10;61.50;;;;;;5045443;28;87958;-42
2022/07/04 08:21:50;;;;;;;;;;;24.10;61.50;;;;;;5042711;28;88871;-41
2022/07/04 08:24:16;;;;;;;;;;;24.10;62.20;;;;;;5042516;28;88113;-41
2022/07/04 08:26:41;;;;;;;;;;;24.10;61.40;;;;;;5043087;28;87352;-41
2022/07/04 08:29:07;;;;;;;;;;;24.10;61.50;;;;;;5042651;27;89004;-43
2022/07/04 08:31:33;;;;;;;;;;;24.10;61.50;;;;;;5042575;28;87267;-42
2022/07/04 08:33:58;;;;;;;;;;;24.10;61.50;;;;;;5043420;28;86315;-42
2022/07/04 08:36:24;;;;;;;;;;;24.20;61.50;;;;;;5042516;28;87516;-41
2022/07/04 08:38:49;;;;;;;;;;;24.20;61.60;;;;;;5042440;28;87239;-43
2022/07/04 08:41:16;;;;;;;;;;;24.20;61.50;;;;;;5045363;28;88034;-43
2022/07/04 08:43:41;;;;;;;;;;;24.20;61.60;;;;;;5042539;28;87070;-41
2022/07/04 08:46:09;;;;;;;;;;;24.20;61.60;;;;;;5042227;28;87063;-42
2022/07/04 08:48:37;;;;;;;;;;;24.20;61.50;;;;;;5042371;27;87369;-43
2022/07/04 08:51:14;;;;;;;;;;;24.20;61.40;;;;;;5042100;28;88101;-42
2022/07/04 08:53:43;;;;;;;;;;;24.20;61.30;;;;;;5042703;28;86899;-43
2022/07/04 08:58:55;;;;;;;;;;;24.20;61.50;;;;;;5046104;28;86299;-44
2022/07/04 09:01:20;;;;;;;;;;;24.30;61.50;;;;;;5045804;28;87190;-43
2022/07/04 09:03:49;;;;;;;;;;;24.30;61.40;;;;;;5048760;27;87582;-42
2022/07/04 09:06:15;;;;;;;;;;;24.30;61.50;;;;;;5045288;28;88046;-42
2022/07/04 09:08:40;;;;;;;;;;;24.30;61.50;;;;;;5046152;28;88406;-42
2022/07/04 09:11:06;;;;;;;;;;;24.30;61.50;;;;;;5045623;28;87988;-42
2022/07/04 09:13:32;;;;;;;;;;;24.30;61.50;;;;;;5045952;28;87158;-43
2022/07/04 09:15:58;;;;;;;;;;;24.30;61.40;;;;;;5045442;28;88683;-43
2022/07/04 09:18:25;;;;;;;;;;;24.30;61.40;;;;;;5045491;28;88007;-43
2022/07/04 09:20:52;;;;;;;;;;;24.40;61.50;;;;;;5045155;28;87203;-43
2022/07/04 09:23:21;;;;;;;;;;;24.40;61.50;;;;;;5045951;27;88800;-41
2022/07/04 09:25:47;;;;;;;;;;;24.40;61.40;;;;;;5048341;28;87060;-42
2022/07/04 09:28:25;;;;;;;;;;;24.40;61.40;;;;;;5045647;27;87984;-44
2022/07/04 09:30:51;;;;;;;;;;;24.40;61.30;;;;;;5044547;28;89792;-43
2022/07/04 09:33:18;;;;;;;;;;;24.40;61.40;;;;;;5045624;28;87113;-42
2022/07/04 09:35:44;;;;;;;;;;;24.50;61.50;;;;;;5045754;27;87225;-43
2022/07/04 09:38:10;;;;;;;;;;;24.50;61.50;;;;;;5043537;28;91534;-42
2022/07/04 09:41:24;;;;;;;;;;;24.50;61.50;;;;;;5045307;28;87144;-42
2022/07/04 09:43:24;;;;;;;;;;;24.50;61.60;;;;;;5044841;28;87638;-42
2022/07/04 09:45:54;;;;;;;;;;;24.50;61.60;;;;;;5044419;28;88179;-42
2022/07/04 09:48:20;;;;;;;;;;;24.50;61.50;;;;;;5048495;27;86296;-43
2022/07/04 09:50:45;;;;;;;;;;;24.50;61.60;;;;;;5045141;28;87966;-42
2022/07/04 09:53:11;;;;;;;;;;;24.60;61.60;;;;;;5045280;28;87146;-42
2022/07/04 09:55:37;;;;;;;;;;;24.50;61.70;;;;;;5044207;28;88951;-42
2022/07/04 09:58:10;;;;;;;;;;;24.60;61.60;;;;;;5044751;28;89314;-42
2022/07/04 10:00:35;;;;;;;;;;;24.60;61.60;;;;;;5045165;28;87115;-42
2022/07/04 10:03:20;;;;;;;;;;;24.60;61.60;;;;;;5045135;27;89199;-42
2022/07/04 10:05:47;;;;;;;;;;;24.60;61.50;;;;;;5044668;28;89649;-42
2022/07/04 10:08:13;;;;;;;;;;;24.60;61.50;;;;;;5047130;27;87090;-42
2022/07/04 10:10:39;;;;;;;;;;;24.60;61.40;;;;;;5044895;28;88024;-42
2022/07/04 10:13:12;;;;;;;;;;;24.70;61.40;;;;;;5045193;28;86444;-43
2022/07/04 10:15:38;;;;;;;;;;;24.70;61.40;;;;;;5044941;27;87016;-42
2022/07/04 10:18:04;;;;;;;;;;;24.70;61.30;;;;;;5044672;28;88280;-42
2022/07/04 10:20:30;;;;;;;;;;;24.70;61.40;;;;;;5043943;28;88034;-43
2022/07/04 10:22:56;;;;;;;;;;;24.80;61.40;;;;;;5044755;28;87808;-42
2022/07/04 10:25:22;;;;;;;;;;;24.80;61.20;;;;;;5044470;28;88064;-42
2022/07/04 10:27:50;;;;;;;;;;;24.80;61.30;;;;;;5044977;28;87122;-42
2022/07/04 10:30:20;;;;;;;;;;;24.80;61.20;;;;;;5047263;27;88854;-42
2022/07/04 10:32:46;;;;;;;;;;;24.80;61.20;;;;;;5044547;28;87132;-43
2022/07/04 10:35:13;;;;;;;;;;;24.90;61.10;;;;;;5044370;27;88778;-42
2022/07/04 10:37:57;;;;;;;;;;;24.90;61.10;;;;;;5044495;28;88922;-43
2022/07/04 10:40:45;;;;;;;;;;;24.90;61.00;;;;;;5044687;27;87287;-44
2022/07/04 10:43:40;;;;;;;;;;;24.90;61.00;;;;;;5044438;28;89122;-43
2022/07/04 10:46:15;;;;;;;;;;;25.00;61.00;;;;;;5042975;27;88111;-43
2022/07/04 10:48:49;;;;;;;;;;;24.90;60.90;;;;;;5044581;28;87111;-42
2022/07/04 10:51:15;;;;;;;;;;;24.90;61.00;;;;;;5044329;28;87973;-43
2022/07/04 10:54:01;;;;;;;;;;;25.00;60.80;;;;;;5046875;28;87971;-42
2022/07/04 10:56:26;;;;;;;;;;;25.00;60.90;;;;;;5044295;28;87750;-41
2022/07/04 10:58:53;;;;;;;;;;;25.00;60.80;;;;;;5043573;28;89585;-42
2022/07/04 11:01:21;;;;;;;;;;;25.00;60.80;;;;;;5044358;28;87101;-42
2022/07/04 11:03:47;;;;;;;;;;;25.00;60.60;;;;;;5044681;27;87335;-42
2022/07/04 11:06:36;;;;;;;;;;;25.10;60.80;;;;;;5043854;28;87213;-42
2022/07/04 11:09:14;;;;;;;;;;;25.10;60.70;;;;;;5037749;28;87141;-44
2022/07/04 11:11:49;;;;;;;;;;;25.10;60.70;;;;;;5043541;28;87728;-41
2022/07/04 11:14:34;;;;;;;;;;;25.10;60.70;;;;;;5043477;28;89317;-42
2022/07/04 11:16:59;;;;;;;;;;;25.20;60.70;;;;;;5047190;27;87220;-43
2022/07/04 11:19:25;;;;;;;;;;;25.20;60.60;;;;;;5042556;27;89552;-41
2022/07/04 11:21:50;;;;;;;;;;;25.20;61.30;;;;;;5043363;28;87140;-43
2022/07/04 11:24:16;;;;;;;;;;;25.20;60.70;;;;;;5043758;27;88866;-43
2022/07/04 11:26:42;;;;;;;;;;;25.30;60.60;;;;;;5043582;28;88085;-42
2022/07/04 11:29:07;;;;;;;;;;;25.30;60.50;;;;;;5044407;28;86412;-42
2022/07/04 11:31:46;;;;;;;;;;;25.30;60.50;;;;;;5043840;28;87232;-42
2022/07/04 11:34:12;;;;;;;;;;;25.30;60.50;;;;;;5043103;28;89297;-42
2022/07/04 11:36:39;;;;;;;;;;;25.30;60.50;;;;;;5041468;28;88149;-42
2022/07/04 11:39:06;;;;;;;;;;;25.30;60.30;;;;;;5045870;27;88997;-42
2022/07/04 11:47:12;;;;;;;;;;;25.40;60.30;;;;;;5043165;28;87164;-42
2022/07/04 11:49:42;;;;;;;;;;;25.40;60.20;;;;;;5043302;28;86972;-43
2022/07/04 11:52:07;;;;;;;;;;;25.50;60.20;;;;;;5043400;28;87821;-43
2022/07/04 11:54:33;;;;;;;;;;;25.50;60.20;;;;;;5043235;28;88643;-42
2022/07/04 11:57:08;;;;;;;;;;;25.50;60.20;;;;;;5043158;28;87222;-43
2022/07/04 11:59:34;;;;;;;;;;;25.50;60.30;;;;;;5045694;27;88758;-43
2022/07/04 12:02:09;;;;;;;;;;;25.50;60.10;;;;;;5042759;28;88070;-43
2022/07/04 12:04:34;;;;;;;;;;;25.50;60.10;;;;;;5043461;27;88141;-43
2022/07/04 12:07:07;;;;;;;;;;;25.50;60.80;;;;;;5042840;28;87281;-43
2022/07/04 12:09:33;;;;;;;;;;;25.60;60.10;;;;;;5043083;28;87256;-43
2022/07/04 12:11:59;;;;;;;;;;;25.60;60.10;;;;;;5043163;28;87486;-44
2022/07/04 12:14:25;;;;;;;;;;;25.70;60.00;;;;;;5042683;28;88015;-43
2022/07/04 12:17:09;;;;;;;;;;;25.70;60.00;;;;;;5042984;28;87190;-43
2022/07/04 12:19:35;;;;;;;;;;;25.70;59.90;;;;;;5043500;28;87378;-42
2022/07/04 12:22:00;;;;;;;;;;;25.70;60.00;;;;;;5045199;28;87904;-42
2022/07/04 12:24:26;;;;;;;;;;;25.70;60.00;;;;;;5043076;28;87326;-43
2022/07/04 12:26:52;;;;;;;;;;;25.80;59.90;;;;;;5042058;28;89053;-41
2022/07/04 12:29:24;;;;;;;;;;;25.80;59.90;;;;;;5042961;28;87155;-42
2022/07/04 12:31:53;;;;;;;;;;;25.70;59.90;;;;;;5042435;27;88903;-42
2022/07/04 12:34:19;;;;;;;;;;;25.70;59.80;;;;;;5042329;28;88125;-42
2022/07/04 12:36:54;;;;;;;;;;;25.80;59.90;;;;;;5042749;28;87548;-42
2022/07/04 12:39:33;;;;;;;;;;;25.80;59.80;;;;;;5042608;27;87437;-42
2022/07/04 12:42:09;;;;;;;;;;;25.90;60.30;;;;;;5042579;28;88178;-42
2022/07/04 12:44:35;;;;;;;;;;;25.90;59.60;;;;;;5045377;28;86360;-43
2022/07/04 12:47:02;;;;;;;;;;;25.90;59.60;;;;;;5041938;28;89483;-42
2022/07/04 12:49:28;;;;;;;;;;;26.00;59.60;;;;;;5042727;28;87109;-42
2022/07/04 12:52:03;;;;;;;;;;;26.00;59.70;;;;;;5041737;27;88731;-41
2022/07/04 12:54:28;;;;;;;;;;;26.00;59.70;;;;;;5042346;28;88185;-42
2022/07/04 12:57:02;;;;;;;;;;;26.00;59.70;;;;;;5042553;28;87137;-42
2022/07/04 12:59:28;;;;;;;;;;;26.00;59.50;;;;;;5042635;27;87378;-43
2022/07/04 13:01:53;;;;;;;;;;;26.10;59.50;;;;;;5041974;28;88172;-42
2022/07/04 13:04:19;;;;;;;;;;;26.10;59.50;;;;;;5042520;28;87170;-42
2022/07/04 13:06:44;;;;;;;;;;;26.10;59.40;;;;;;5045116;28;87473;-42
2022/07/04 13:09:10;;;;;;;;;;;26.10;59.50;;;;;;5042839;28;86447;-42
2022/07/04 13:14:20;;;;;;;;;;;26.20;59.40;;;;;;5041929;28;87396;-43
2022/07/04 13:16:46;;;;;;;;;;;26.20;59.50;;;;;;5041673;28;88114;-42
2022/07/04 13:19:11;;;;;;;;;;;26.20;59.40;;;;;;5042378;28;88157;-42
2022/07/04 13:21:37;;;;;;;;;;;26.20;59.20;;;;;;5041519;28;89966;-42
2022/07/04 13:24:03;;;;;;;;;;;26.30;59.50;;;;;;5042483;28;87631;-42
2022/07/04 13:26:30;;;;;;;;;;;26.30;59.50;;;;;;5042392;28;87038;-43
2022/07/04 13:28:56;;;;;;;;;;;26.30;59.20;;;;;;5044614;28;88022;-42
2022/07/04 13:31:21;;;;;;;;;;;26.30;59.30;;;;;;5042175;27;87409;-42
2022/07/04 13:33:47;;;;;;;;;;;26.30;59.10;;;;;;5042504;28;87393;-43
2022/07/04 13:36:14;;;;;;;;;;;26.30;59.10;;;;;;5042119;28;87126;-43
2022/07/04 13:38:40;;;;;;;;;;;26.40;59.20;;;;;;5042144;27;87467;-42
2022/07/04 13:41:06;;;;;;;;;;;26.40;59.10;;;;;;5040568;28;90691;-42
2022/07/04 13:43:31;;;;;;;;;;;26.40;59.10;;;;;;5042913;27;87185;-43
2022/07/04 13:45:57;;;;;;;;;;;26.50;59.10;;;;;;5045129;28;87133;-43
2022/07/04 13:48:23;;;;;;;;;;;26.50;59.20;;;;;;5043680;28;89342;-43
2022/07/04 13:50:48;;;;;;;;;;;26.50;58.90;;;;;;5048396;28;87082;-42
2022/07/04 13:53:14;;;;;;;;;;;26.50;59.00;;;;;;5045115;28;88034;-43
2022/07/04 13:55:40;;;;;;;;;;;26.50;58.90;;;;;;5044979;28;86938;-42
2022/07/04 13:58:06;;;;;;;;;;;26.50;59.00;;;;;;5045545;27;88942;-43
2022/07/04 14:00:32;;;;;;;;;;;26.50;58.50;;;;;;5044758;28;87953;-43
2022/07/04 14:02:59;;;;;;;;;;;26.60;58.60;;;;;;5045249;28;87141;-42
2022/07/04 14:05:24;;;;;;;;;;;26.60;58.60;;;;;;5044414;27;88006;-42
2022/07/04 14:07:51;;;;;;;;;;;26.60;58.50;;;;;;5044775;28;88177;-43
2022/07/04 14:10:16;;;;;;;;;;;26.70;58.30;;;;;;5048083;28;87218;-44
2022/07/04 14:12:42;;;;;;;;;;;26.70;58.60;;;;;;5044743;28;88044;-42
2022/07/04 14:15:08;;;;;;;;;;;26.70;58.40;;;;;;5044683;28;87238;-43
2022/07/04 14:17:33;;;;;;;;;;;26.70;58.20;;;;;;5044669;27;88819;-43
2022/07/04 14:19:59;;;;;;;;;;;26.80;58.30;;;;;;5044554;28;87932;-42
2022/07/04 14:22:25;;;;;;;;;;;26.80;58.40;;;;;;5045261;28;86368;-43
2022/07/04 14:24:51;;;;;;;;;;;26.80;58.30;;;;;;5044990;27;87075;-43
2022/07/04 14:27:16;;;;;;;;;;;26.90;58.30;;;;;;5044546;28;88163;-43
2022/07/04 14:29:42;;;;;;;;;;;26.90;58.30;;;;;;5044000;28;88978;-43
2022/07/04 14:32:07;;;;;;;;;;;26.90;58.40;;;;;;5047113;28;89956;-42
2022/07/04 14:34:34;;;;;;;;;;;26.90;58.30;;;;;;5044772;28;87125;-43